Time;durP1;ratioP1;P1;durP2;ratioP2;P2;SDS_P1;SDS_P2;PMS_P1;PMS_P2;Temp;Humidity;BMP_temperature;BMP_pressure;BME280_temperature;BME280_humidity;BME280_pressure;Samples;Min_cycle;Max_cycle;Signal;HPM_P1;HPM_P2
2022/07/19 00:06:31;;;;;;;4.07;2.55;;;;;;;17.38;78.32;98029.19;18494242;32;20064;-63
2022/07/19 00:16:33;;;;;;;5.75;2.53;;;;;;;17.22;79.48;98028.69;18493772;32;20417;-63
2022/07/19 00:26:35;;;;;;;4.03;2.67;;;;;;;17.06;80.08;98018.06;18507261;32;20353;-63
2022/07/19 00:36:38;;;;;;;3.50;2.20;;;;;;;17.00;80.73;98015.72;18506572;32;20105;-63
2022/07/19 00:46:40;;;;;;;3.70;2.72;;;;;;;16.81;81.34;98000.22;18506030;32;20046;-62
2022/07/19 00:56:47;;;;;;;4.18;2.75;;;;;;;16.75;81.87;97995.97;18504989;32;20093;-62
2022/07/19 01:06:49;;;;;;;3.75;2.45;;;;;;;16.61;81.65;97993.22;18490554;32;20064;-63
2022/07/19 01:16:52;;;;;;;4.12;2.60;;;;;;;16.47;82.40;98000.59;18504290;32;20060;-62
2022/07/19 01:26:54;;;;;;;2.87;2.57;;;;;;;16.35;82.35;97995.59;18489424;32;20056;-63
2022/07/19 01:36:56;;;;;;;3.28;2.58;;;;;;;16.20;82.65;97997.50;18503330;32;20101;-63
2022/07/19 01:46:59;;;;;;;3.83;2.10;;;;;;;16.13;83.37;97996.25;18502717;32;20130;-63
2022/07/19 01:57:01;;;;;;;2.83;2.50;;;;;;;15.99;83.43;97996.19;18501754;32;20487;-63
2022/07/19 02:07:03;;;;;;;4.47;2.40;;;;;;;15.83;83.70;97999.19;18501349;32;20091;-64
2022/07/19 02:17:06;;;;;;;2.83;2.53;;;;;;;15.67;84.20;97995.03;18500181;32;20069;-62
2022/07/19 02:27:12;;;;;;;4.20;2.20;;;;;;;15.53;85.25;97989.53;18499896;32;20056;-63
2022/07/19 02:37:14;;;;;;;3.23;2.63;;;;;;;15.40;85.21;97967.34;18499210;32;20116;-63
2022/07/19 02:47:17;;;;;;;3.70;2.93;;;;;;;15.32;85.62;97959.00;18498945;32;20634;-63
2022/07/19 02:57:19;;;;;;;4.27;2.87;;;;;;;15.23;86.22;97962.38;18497971;32;20060;-63
2022/07/19 03:07:21;;;;;;;5.43;3.37;;;;;;;15.09;86.35;97956.06;18497901;32;20092;-63
2022/07/19 03:17:23;;;;;;;2.80;2.50;;;;;;;15.00;87.17;97955.88;18497295;32;20061;-62
2022/07/19 03:27:26;;;;;;;5.00;2.73;;;;;;;14.95;87.95;97958.69;18496272;32;20075;-63
2022/07/19 03:37:28;;;;;;;5.03;2.90;;;;;;;14.84;87.56;97966.16;18496148;32;20057;-63
2022/07/19 03:47:30;;;;;;;3.80;2.60;;;;;;;14.74;88.32;97963.56;18495924;32;20048;-63
2022/07/19 03:57:33;;;;;;;3.70;3.07;;;;;;;14.67;88.85;97966.63;18480778;32;20061;-63
2022/07/19 04:07:35;;;;;;;4.67;3.43;;;;;;;14.67;89.07;97968.53;18495200;32;20101;-63
2022/07/19 04:17:38;;;;;;;4.80;2.77;;;;;;;14.61;88.58;97983.25;18494533;32;20053;-63
2022/07/19 04:27:41;;;;;;;4.10;2.50;;;;;;;14.56;88.36;97979.50;18494707;32;20104;-63
2022/07/19 04:37:43;;;;;;;3.27;2.47;;;;;;;14.68;89.04;98000.09;18493159;32;20076;-63
2022/07/19 04:47:45;;;;;;;3.83;2.73;;;;;;;14.89;88.79;97997.94;18492239;32;20057;-63
2022/07/19 04:57:48;;;;;;;4.53;2.90;;;;;;;15.11;88.18;98000.12;18491292;32;20061;-63
2022/07/19 05:07:50;;;;;;;5.37;2.57;;;;;;;15.40;87.40;98001.94;18503496;32;20053;-62
2022/07/19 05:17:53;;;;;;;2.63;2.20;;;;;;;15.75;86.42;98003.34;18489955;32;20091;-63
2022/07/19 05:27:56;;;;;;;2.50;2.30;;;;;;;16.11;85.02;98006.66;18489616;32;20075;-63
2022/07/19 05:37:59;;;;;;;3.55;2.22;;;;;;;16.49;84.20;98007.38;18503213;32;20080;-64
2022/07/19 05:48:01;;;;;;;2.17;1.90;;;;;;;16.95;83.06;98000.25;18502904;32;20105;-64
2022/07/19 05:58:03;;;;;;;2.65;2.30;;;;;;;17.47;81.85;97993.72;18501433;32;20406;-63
2022/07/19 06:08:06;;;;;;;3.37;2.92;;;;;;;18.01;80.82;98002.88;18501116;32;20053;-63
2022/07/19 06:18:09;;;;;;;3.62;2.67;;;;;;;18.57;79.56;98002.59;18500547;32;20045;-64
2022/07/19 06:28:11;;;;;;;2.20;1.92;;;;;;;19.22;76.82;98017.53;18500003;32;20102;-64
2022/07/19 06:38:14;;;;;;;2.67;1.75;;;;;;;19.97;73.49;98017.47;18472390;32;20403;-64
2022/07/19 06:48:16;;;;;;;5.90;2.33;;;;;;;20.80;72.17;98020.25;18499286;32;20079;-64
2022/07/19 06:58:19;;;;;;;2.97;2.47;;;;;;;21.53;69.12;98022.03;18483711;32;20148;-64
2022/07/19 07:08:21;;;;;;;4.40;2.70;;;;;;;22.19;61.94;98015.03;18470196;32;20056;-64
2022/07/19 07:18:24;;;;;;;3.03;2.47;;;;;;;22.82;54.94;98025.88;18496708;32;20442;-63
2022/07/19 07:28:26;;;;;;;4.53;2.97;;;;;;;23.42;52.10;98013.63;18482314;32;20188;-64
2022/07/19 07:38:29;;;;;;;;;;;;;;;24.06;50.29;98013.97;18496326;32;20065;-64
2022/07/19 07:48:31;;;;;;;4.63;2.93;;;;;;;24.67;49.84;98013.69;18496208;32;20308;-64
2022/07/19 07:58:34;;;;;;;3.28;2.40;;;;;;;25.27;47.85;98004.47;18494965;32;20072;-64
2022/07/19 08:08:38;;;;;;;5.97;2.62;;;;;;;25.90;46.16;97997.19;18495022;32;20061;-64
2022/07/19 08:18:41;;;;;;;4.22;2.30;;;;;;;26.52;43.63;97999.19;18502003;32;20093;-64
2022/07/19 08:28:46;;;;;;;3.08;2.30;;;;;;;27.20;44.00;97989.25;18507775;32;20057;-64
2022/07/19 08:38:49;;;;;;;4.05;2.62;;;;;;;27.82;41.40;97984.56;18506895;32;20069;-64
2022/07/19 08:48:54;;;;;;;3.12;2.53;;;;;;;28.40;40.14;97975.72;18491705;32;20057;-63
2022/07/19 08:58:57;;;;;;;6.15;2.30;;;;;;;28.92;37.46;97969.47;18505387;32;20069;-64
2022/07/19 09:09:03;;;;;;;2.53;2.25;;;;;;;29.44;37.33;97971.44;18491093;32;20057;-63
2022/07/19 09:19:06;;;;;;;2.33;2.12;;;;;;;29.96;37.40;97960.16;18504847;32;20088;-64
2022/07/19 09:29:18;;;;;;;4.57;2.45;;;;;;;30.41;36.64;97963.50;18489114;32;20428;-63
2022/07/19 09:39:29;;;;;;;3.08;2.33;;;;;;;30.82;33.66;97956.75;18502939;32;20086;-63
2022/07/19 09:49:35;;;;;;;2.92;2.30;;;;;;;31.21;34.36;97953.19;18502690;32;20049;-63
2022/07/19 09:59:48;;;;;;;8.40;2.92;;;;;;;31.61;34.42;97941.94;18501688;32;20083;-63
2022/07/19 10:09:51;;;;;;;4.47;2.80;;;;;;;32.00;34.03;97938.97;18501144;32;20134;-63
2022/07/19 10:19:55;;;;;;;3.80;2.28;;;;;;;32.37;34.37;97931.97;18486588;32;20065;-63
2022/07/19 10:29:58;;;;;;;3.30;2.50;;;;;;;32.88;31.85;97926.00;18499914;32;20124;-63
2022/07/19 10:40:03;;;;;;;3.22;2.58;;;;;;;33.21;31.23;97923.69;18498444;32;20049;-63
2022/07/19 10:50:18;;;;;;;4.00;2.30;;;;;;;33.53;30.54;97902.94;18497706;32;20078;-63
2022/07/19 11:00:27;;;;;;;2.67;2.25;;;;;;;33.84;30.36;97900.19;18498148;32;20054;-63
2022/07/19 11:10:30;;;;;;;4.30;2.67;;;;;;;34.23;30.19;97890.41;18484240;32;20080;-63
2022/07/19 11:20:36;;;;;;;4.12;2.37;;;;;;;34.54;26.63;97887.56;18483575;32;20124;-63
2022/07/19 11:30:39;;;;;;;3.25;2.70;;;;;;;34.88;29.00;97876.16;18496573;32;20057;-63
2022/07/19 11:40:41;;;;;;;2.60;2.40;;;;;;;35.30;29.84;97872.94;18496665;32;20099;-63
2022/07/19 11:50:44;;;;;;;4.90;2.67;;;;;;;35.54;29.88;97853.22;18481487;32;20057;-63
2022/07/19 12:00:51;;;;;;;4.45;2.80;;;;;;;35.92;29.32;97852.81;18495442;32;20464;-63
2022/07/19 12:10:55;;;;;;;4.22;2.92;;;;;;;36.40;27.00;97844.87;18495803;32;20100;-64
2022/07/19 12:21:35;;;;;;;3.05;2.78;;;;;;;36.44;27.27;97834.31;18495078;32;20128;-63
2022/07/19 12:31:45;;;;;;;2.60;2.40;;;;;;;36.96;27.62;97826.94;18293006;32;20109;-63
2022/07/19 12:42:03;;;;;;;4.95;2.30;;;;;;;37.46;26.89;97828.34;18292856;32;20082;-64
2022/07/19 12:52:06;;;;;;;5.43;2.70;;;;;;;37.71;21.45;97809.88;18280118;32;20058;-63
2022/07/19 13:02:15;;;;;;;5.25;2.45;;;;;;;37.92;25.23;97804.81;18347259;32;20106;-63
2022/07/19 13:12:20;;;;;;;4.15;3.15;;;;;;;38.45;22.97;97799.47;18440696;32;20052;-63
2022/07/19 13:22:24;;;;;;;3.97;2.80;;;;;;;38.71;24.12;97793.75;18438684;32;20505;-63
2022/07/19 13:32:27;;;;;;;4.30;2.67;;;;;;;39.21;21.46;97779.06;18437893;32;20477;-63
2022/07/19 13:42:30;;;;;;;4.35;2.72;;;;;;;39.62;24.04;97768.63;18437414;32;20079;-63
2022/07/19 13:52:34;;;;;;;4.53;2.50;;;;;;;40.07;20.97;97763.62;18447054;32;20119;-63
2022/07/19 14:02:39;;;;;;;4.00;2.50;;;;;;;40.55;20.76;97751.91;18475223;32;20061;-63
2022/07/19 14:12:43;;;;;;;4.75;2.50;;;;;;;40.69;21.61;97744.81;18501129;32;20049;-63
2022/07/19 14:22:47;;;;;;;3.28;2.25;;;;;;;40.89;24.10;97730.16;18473663;32;20083;-63
2022/07/19 14:32:50;;;;;;;3.37;2.30;;;;;;;41.19;15.86;97734.06;18485765;32;20091;-63
2022/07/19 14:42:52;;;;;;;3.47;2.50;;;;;;;41.08;20.54;97719.59;18499691;32;20061;-62
2022/07/19 14:52:55;;;;;;;2.87;2.10;;;;;;;41.57;21.47;97710.00;18498572;32;20054;-62
2022/07/19 15:02:57;;;;;;;3.25;2.40;;;;;;;41.44;18.42;97704.53;18498047;32;20175;-63
2022/07/19 15:13:00;;;;;;;2.53;1.85;;;;;;;40.01;18.89;97684.16;18483536;32;20071;-62
2022/07/19 15:23:03;;;;;;;4.43;2.25;;;;;;;38.32;22.73;97674.47;18469804;32;20120;-62
2022/07/19 15:33:05;;;;;;;3.50;2.47;;;;;;;37.57;21.27;97667.25;18482785;32;20095;-62
2022/07/19 15:43:08;;;;;;;2.22;1.83;;;;;;;37.00;20.43;97661.34;18496124;32;20101;-62
2022/07/19 15:53:11;;;;;;;3.08;1.80;;;;;;;36.28;24.82;97655.69;18468318;32;20045;-62
2022/07/19 16:03:14;;;;;;;4.18;2.10;;;;;;;35.77;23.51;97653.41;18495285;32;20057;-62
2022/07/19 16:13:16;;;;;;;3.10;1.85;;;;;;;35.12;24.68;97632.44;18495245;32;20075;-62
2022/07/19 16:23:19;;;;;;;4.05;2.10;;;;;;;34.50;29.21;97623.69;18494497;32;20080;-62
2022/07/19 16:33:21;;;;;;;2.58;2.03;;;;;;;33.92;30.97;97607.16;18480478;32;20092;-62
2022/07/19 16:43:24;;;;;;;3.05;2.03;;;;;;;33.55;35.25;97604.16;18504717;32;20081;-62
2022/07/19 16:53:26;;;;;;;2.37;1.85;;;;;;;33.30;32.96;97581.34;18505610;32;20101;-62
2022/07/19 17:03:30;;;;;;;3.35;1.83;;;;;;;34.00;32.78;97577.75;18491441;32;20079;-62
2022/07/19 17:13:32;;;;;;;3.53;1.77;;;;;;;33.60;34.01;97583.25;18504872;32;20487;-62
2022/07/19 17:23:35;;;;;;;2.45;1.95;;;;;;;32.39;36.99;97592.97;18490251;32;20108;-62
2022/07/19 17:33:37;;;;;;;2.70;2.12;;;;;;;31.58;36.98;97591.38;18489672;32;20113;-62
2022/07/19 17:43:40;;;;;;;3.67;2.05;;;;;;;30.75;39.84;97592.72;18488564;32;20429;-62
2022/07/19 17:53:42;;;;;;;3.20;2.22;;;;;;;29.95;40.09;97583.03;18502020;32;20057;-62
2022/07/19 18:03:45;;;;;;;2.85;2.10;;;;;;;29.26;41.62;97576.72;18502247;32;20075;-62
2022/07/19 18:13:47;;;;;;;2.20;2.00;;;;;;;28.87;44.43;97569.87;18487441;32;20105;-62
2022/07/19 18:23:50;;;;;;;4.50;1.90;;;;;;;28.35;46.03;97572.88;18500535;32;20169;-62
2022/07/19 18:33:52;;;;;;;3.28;2.15;;;;;;;27.77;47.50;97565.41;18499853;32;20056;-62
2022/07/19 18:43:54;;;;;;;5.45;2.58;;;;;;;27.34;49.38;97566.66;18499292;32;20109;-62
2022/07/19 18:53:57;;;;;;;2.58;1.70;;;;;;;27.00;49.97;97563.19;18484332;32;20062;-62
2022/07/19 19:03:59;;;;;;;3.65;2.30;;;;;;;26.65;50.36;97567.16;18496651;32;20072;-62
2022/07/19 19:14:02;;;;;;;3.83;1.77;;;;;;;26.16;51.95;97577.28;18470488;32;20048;-62
2022/07/19 19:24:05;;;;;;;2.35;1.95;;;;;;;25.67;51.66;97578.94;18497008;32;20052;-62
2022/07/19 19:34:07;;;;;;;2.33;1.98;;;;;;;25.19;52.05;97580.13;18496285;32;20071;-63
2022/07/19 19:44:10;;;;;;;6.15;1.83;;;;;;;24.72;53.59;97600.63;18481993;32;20080;-62
2022/07/19 19:54:12;;;;;;;4.82;1.80;;;;;;;24.27;54.42;97611.16;18495274;32;20052;-62
2022/07/19 20:04:15;;;;;;;2.83;2.10;;;;;;;23.93;54.98;97623.84;18481484;32;20065;-62
2022/07/19 20:14:19;;;;;;;3.60;2.20;;;;;;;23.57;55.25;97621.00;18503504;32;20061;-62
2022/07/19 20:24:21;;;;;;;4.93;2.22;;;;;;;23.31;56.03;97605.78;18508084;32;20076;-62
2022/07/19 20:34:24;;;;;;;3.00;2.67;;;;;;;23.02;56.30;97613.31;18507205;32;20053;-62
2022/07/19 20:44:27;;;;;;;4.50;2.30;;;;;;;22.72;58.22;97612.06;18492697;32;20376;-62
2022/07/19 20:54:29;;;;;;;;;;;;;;;22.45;59.40;97620.00;18506056;32;20075;-63
2022/07/19 21:04:36;;;;;;;4.03;1.87;;;;;;;22.20;58.63;97625.56;18491878;32;19959;-62
2022/07/19 21:14:54;;;;;;;3.08;2.25;;;;;;;21.98;58.91;97624.91;18504705;32;20048;-62
2022/07/19 21:25:13;;;;;;;2.75;2.20;;;;;;;21.81;59.89;97627.91;18489104;32;20060;-63
2022/07/19 21:35:25;;;;;;;3.05;1.98;;;;;;;21.57;60.88;97632.28;18503666;32;20369;-62
2022/07/19 21:45:27;;;;;;;2.57;1.90;;;;;;;21.36;61.24;97632.31;18503230;32;20105;-62
2022/07/19 21:55:30;;;;;;;3.10;2.28;;;;;;;21.20;62.40;97636.88;18488595;32;20057;-62
2022/07/19 22:05:32;;;;;;;3.03;2.30;;;;;;;21.03;63.05;97643.41;18502061;32;20451;-62
2022/07/19 22:15:35;;;;;;;2.53;2.03;;;;;;;20.91;63.42;97646.91;18487112;32;20077;-62
2022/07/19 22:25:38;;;;;;;2.83;2.10;;;;;;;20.73;64.28;97655.31;18500644;32;20053;-62
2022/07/19 22:35:41;;;;;;;2.60;2.33;;;;;;;20.61;66.19;97657.97;18498269;32;20075;-62
2022/07/19 22:45:43;;;;;;;5.90;2.40;;;;;;;20.52;66.76;97660.81;18499483;32;20152;-63
2022/07/19 22:55:46;;;;;;;5.43;2.50;;;;;;;20.39;67.07;97665.44;18484455;32;20120;-63
2022/07/19 23:05:48;;;;;;;3.13;2.13;;;;;;;20.27;67.73;97657.12;18484163;32;20053;-62
2022/07/19 23:15:51;;;;;;;3.80;2.40;;;;;;;20.19;69.45;97661.53;18497465;32;20429;-63
2022/07/19 23:25:53;;;;;;;6.73;2.50;;;;;;;20.07;70.63;97672.44;18482982;32;20053;-62
2022/07/19 23:35:55;;;;;;;4.90;2.28;;;;;;;19.94;70.49;97666.84;18482251;32;20053;-63
2022/07/19 23:45:58;;;;;;;4.03;2.37;;;;;;;19.84;70.63;97666.44;18481583;32;20072;-62
2022/07/19 23:56:00;;;;;;;2.63;2.40;;;;;;;19.71;71.69;97666.31;18495444;32;20045;-63
